sensor_id;sensor_type;location;lat;lon;timestamp;pressure;altitude;pressure_sealevel;temperature;humidity
36630;BME280;36256;42.154;23.002;2023-12-20T00:01:36;97789.50;;;-0.24;100.00
36630;BME280;36256;42.154;23.002;2023-12-20T00:04:03;97772.72;;;-0.38;100.00
36630;BME280;36256;42.154;23.002;2023-12-20T00:06:30;97784.72;;;-0.27;100.00
36630;BME280;36256;42.154;23.002;2023-12-20T00:08:56;97783.13;;;-0.28;100.00
36630;BME280;36256;42.154;23.002;2023-12-20T00:11:24;97787.03;;;-0.29;100.00
36630;BME280;36256;42.154;23.002;2023-12-20T00:13:51;97781.22;;;-0.24;100.00
36630;BME280;36256;42.154;23.002;2023-12-20T00:16:18;97784.81;;;-0.20;100.00
36630;BME280;36256;42.154;23.002;2023-12-20T00:18:45;97772.09;;;-0.28;100.00
36630;BME280;36256;42.154;23.002;2023-12-20T00:21:12;97769.00;;;-0.23;100.00
36630;BME280;36256;42.154;23.002;2023-12-20T00:23:38;97778.97;;;-0.15;100.00
36630;BME280;36256;42.154;23.002;2023-12-20T00:26:05;97781.44;;;-0.06;100.00
36630;BME280;36256;42.154;23.002;2023-12-20T00:28:32;97775.59;;;-0.05;100.00
36630;BME280;36256;42.154;23.002;2023-12-20T00:30:59;97763.38;;;-0.04;100.00
36630;BME280;36256;42.154;23.002;2023-12-20T00:33:25;97765.47;;;0.07;100.00
36630;BME280;36256;42.154;23.002;2023-12-20T00:35:53;97750.41;;;0.00;100.00
36630;BME280;36256;42.154;23.002;2023-12-20T00:38:19;97764.00;;;0.13;100.00
36630;BME280;36256;42.154;23.002;2023-12-20T00:40:46;97756.13;;;0.15;100.00
36630;BME280;36256;42.154;23.002;2023-12-20T00:43:13;97758.53;;;0.20;100.00
36630;BME280;36256;42.154;23.002;2023-12-20T00:45:39;97753.78;;;0.17;100.00
36630;BME280;36256;42.154;23.002;2023-12-20T00:48:06;97757.72;;;0.16;100.00
36630;BME280;36256;42.154;23.002;2023-12-20T00:50:33;97754.84;;;0.09;100.00
36630;BME280;36256;42.154;23.002;2023-12-20T00:53:00;97763.78;;;-0.02;100.00
36630;BME280;36256;42.154;23.002;2023-12-20T00:55:27;97754.25;;;-0.08;100.00
36630;BME280;36256;42.154;23.002;2023-12-20T00:57:54;97727.22;;;-0.25;100.00
36630;BME280;36256;42.154;23.002;2023-12-20T01:00:20;97749.50;;;-0.11;100.00
36630;BME280;36256;42.154;23.002;2023-12-20T01:02:47;97738.50;;;-0.07;100.00
36630;BME280;36256;42.154;23.002;2023-12-20T01:05:16;97731.38;;;-0.08;100.00
36630;BME280;36256;42.154;23.002;2023-12-20T01:07:44;97721.56;;;-0.06;100.00
36630;BME280;36256;42.154;23.002;2023-12-20T01:10:11;97721.25;;;-0.01;100.00
36630;BME280;36256;42.154;23.002;2023-12-20T01:12:37;97715.78;;;0.03;100.00
36630;BME280;36256;42.154;23.002;2023-12-20T01:15:04;97711.84;;;0.04;100.00
36630;BME280;36256;42.154;23.002;2023-12-20T01:17:31;97716.56;;;0.04;100.00
36630;BME280;36256;42.154;23.002;2023-12-20T01:19:58;97713.84;;;0.07;100.00
36630;BME280;36256;42.154;23.002;2023-12-20T01:22:25;97693.66;;;-0.01;100.00
36630;BME280;36256;42.154;23.002;2023-12-20T01:24:51;97702.00;;;0.07;100.00
36630;BME280;36256;42.154;23.002;2023-12-20T01:27:18;97694.53;;;0.07;100.00
36630;BME280;36256;42.154;23.002;2023-12-20T01:29:45;97686.28;;;0.11;100.00
36630;BME280;36256;42.154;23.002;2023-12-20T01:32:11;97700.16;;;0.14;100.00
36630;BME280;36256;42.154;23.002;2023-12-20T01:34:38;97681.94;;;0.06;100.00
36630;BME280;36256;42.154;23.002;2023-12-20T01:37:05;97689.81;;;0.08;100.00
36630;BME280;36256;42.154;23.002;2023-12-20T01:39:32;97690.66;;;0.12;100.00
36630;BME280;36256;42.154;23.002;2023-12-20T01:41:58;97688.97;;;0.04;100.00
36630;BME280;36256;42.154;23.002;2023-12-20T01:44:25;97691.38;;;0.09;100.00
36630;BME280;36256;42.154;23.002;2023-12-20T01:46:53;97671.63;;;0.03;100.00
36630;BME280;36256;42.154;23.002;2023-12-20T01:49:21;97681.97;;;0.10;100.00
36630;BME280;36256;42.154;23.002;2023-12-20T01:51:49;97665.31;;;0.03;100.00
36630;BME280;36256;42.154;23.002;2023-12-20T01:54:17;97650.69;;;-0.02;100.00
36630;BME280;36256;42.154;23.002;2023-12-20T01:56:46;97666.97;;;0.11;100.00
36630;BME280;36256;42.154;23.002;2023-12-20T01:59:13;97664.59;;;0.09;100.00
36630;BME280;36256;42.154;23.002;2023-12-20T02:01:39;97642.34;;;-0.09;100.00
36630;BME280;36256;42.154;23.002;2023-12-20T02:04:06;97656.19;;;-0.02;100.00
36630;BME280;36256;42.154;23.002;2023-12-20T02:06:33;97645.59;;;0.00;100.00
36630;BME280;36256;42.154;23.002;2023-12-20T02:09:00;97636.94;;;0.02;100.00
36630;BME280;36256;42.154;23.002;2023-12-20T02:11:27;97639.22;;;-0.04;100.00
36630;BME280;36256;42.154;23.002;2023-12-20T02:13:55;97631.03;;;0.00;100.00
36630;BME280;36256;42.154;23.002;2023-12-20T02:16:22;97605.63;;;-0.13;100.00
36630;BME280;36256;42.154;23.002;2023-12-20T02:18:49;97621.94;;;-0.01;100.00
36630;BME280;36256;42.154;23.002;2023-12-20T02:21:16;97619.13;;;-0.04;100.00
36630;BME280;36256;42.154;23.002;2023-12-20T02:23:42;97615.19;;;-0.07;100.00
36630;BME280;36256;42.154;23.002;2023-12-20T02:26:10;97616.44;;;-0.01;100.00
36630;BME280;36256;42.154;23.002;2023-12-20T02:28:37;97617.97;;;-0.03;100.00
36630;BME280;36256;42.154;23.002;2023-12-20T02:31:03;97614.81;;;-0.02;100.00
36630;BME280;36256;42.154;23.002;2023-12-20T02:33:31;97620.41;;;0.02;100.00
36630;BME280;36256;42.154;23.002;2023-12-20T02:35:57;97618.81;;;0.05;100.00
36630;BME280;36256;42.154;23.002;2023-12-20T02:38:24;97614.50;;;0.04;100.00
36630;BME280;36256;42.154;23.002;2023-12-20T02:40:51;97611.66;;;-0.04;100.00
36630;BME280;36256;42.154;23.002;2023-12-20T02:43:18;97598.13;;;-0.16;100.00
36630;BME280;36256;42.154;23.002;2023-12-20T02:45:44;97595.78;;;-0.14;100.00
36630;BME280;36256;42.154;23.002;2023-12-20T02:48:11;97600.56;;;-0.11;100.00
36630;BME280;36256;42.154;23.002;2023-12-20T02:50:38;97599.78;;;-0.08;100.00
36630;BME280;36256;42.154;23.002;2023-12-20T02:53:05;97605.31;;;-0.08;100.00
36630;BME280;36256;42.154;23.002;2023-12-20T02:55:32;97594.28;;;-0.04;100.00
36630;BME280;36256;42.154;23.002;2023-12-20T02:57:58;97588.78;;;-0.04;100.00
36630;BME280;36256;42.154;23.002;2023-12-20T03:00:25;97595.81;;;-0.10;100.00
36630;BME280;36256;42.154;23.002;2023-12-20T03:02:52;97596.63;;;-0.06;100.00
36630;BME280;36256;42.154;23.002;2023-12-20T03:05:18;97585.16;;;-0.12;100.00
36630;BME280;36256;42.154;23.002;2023-12-20T03:07:46;97582.81;;;-0.10;100.00
36630;BME280;36256;42.154;23.002;2023-12-20T03:10:14;97583.22;;;-0.08;100.00
36630;BME280;36256;42.154;23.002;2023-12-20T03:12:51;97586.41;;;-0.06;100.00
36630;BME280;36256;42.154;23.002;2023-12-20T03:15:18;97587.19;;;-0.09;100.00
36630;BME280;36256;42.154;23.002;2023-12-20T03:17:45;97585.19;;;-0.08;100.00
36630;BME280;36256;42.154;23.002;2023-12-20T03:20:12;97580.88;;;-0.09;100.00
36630;BME280;36256;42.154;23.002;2023-12-20T03:22:39;97575.75;;;-0.07;100.00
36630;BME280;36256;42.154;23.002;2023-12-20T03:25:05;97565.06;;;-0.12;100.00
36630;BME280;36256;42.154;23.002;2023-12-20T03:27:32;97575.38;;;-0.06;100.00
36630;BME280;36256;42.154;23.002;2023-12-20T03:29:59;97576.19;;;-0.02;100.00
36630;BME280;36256;42.154;23.002;2023-12-20T03:32:26;97563.97;;;-0.04;100.00
36630;BME280;36256;42.154;23.002;2023-12-20T03:34:53;97566.78;;;-0.01;100.00
36630;BME280;36256;42.154;23.002;2023-12-20T03:37:21;97557.66;;;-0.05;100.00
36630;BME280;36256;42.154;23.002;2023-12-20T03:39:48;97568.28;;;-0.07;100.00
36630;BME280;36256;42.154;23.002;2023-12-20T03:42:15;97568.28;;;-0.07;100.00
36630;BME280;36256;42.154;23.002;2023-12-20T03:44:42;97562.66;;;-0.17;100.00
36630;BME280;36256;42.154;23.002;2023-12-20T03:47:08;97555.50;;;-0.22;100.00
36630;BME280;36256;42.154;23.002;2023-12-20T03:49:35;97557.84;;;-0.24;100.00
36630;BME280;36256;42.154;23.002;2023-12-20T03:52:04;97558.97;;;-0.28;100.00
36630;BME280;36256;42.154;23.002;2023-12-20T03:54:31;97556.22;;;-0.28;100.00
36630;BME280;36256;42.154;23.002;2023-12-20T03:56:58;97555.00;;;-0.31;100.00
36630;BME280;36256;42.154;23.002;2023-12-20T03:59:24;97561.84;;;-0.18;100.00
36630;BME280;36256;42.154;23.002;2023-12-20T04:01:51;97558.75;;;-0.13;100.00
36630;BME280;36256;42.154;23.002;2023-12-20T04:04:18;97555.53;;;-0.18;100.00
36630;BME280;36256;42.154;23.002;2023-12-20T04:06:45;97563.09;;;-0.12;100.00
36630;BME280;36256;42.154;23.002;2023-12-20T04:09:12;97564.25;;;-0.13;100.00
36630;BME280;36256;42.154;23.002;2023-12-20T04:11:39;97555.56;;;-0.15;100.00
36630;BME280;36256;42.154;23.002;2023-12-20T04:14:06;97558.75;;;-0.13;100.00
36630;BME280;36256;42.154;23.002;2023-12-20T04:16:34;97563.13;;;-0.08;100.00
36630;BME280;36256;42.154;23.002;2023-12-20T04:19:01;97555.66;;;-0.08;100.00
36630;BME280;36256;42.154;23.002;2023-12-20T04:21:28;97554.81;;;-0.12;100.00
36630;BME280;36256;42.154;23.002;2023-12-20T04:23:54;97541.38;;;-0.17;100.00
36630;BME280;36256;42.154;23.002;2023-12-20T04:26:21;97539.00;;;-0.18;100.00
36630;BME280;36256;42.154;23.002;2023-12-20T04:28:48;97533.16;;;-0.13;100.00
36630;BME280;36256;42.154;23.002;2023-12-20T04:31:18;97531.13;;;-0.16;100.00
36630;BME280;36256;42.154;23.002;2023-12-20T04:33:45;97536.25;;;-0.15;100.00
36630;BME280;36256;42.154;23.002;2023-12-20T04:36:11;97535.03;;;-0.21;100.00
36630;BME280;36256;42.154;23.002;2023-12-20T04:38:38;97505.72;;;-0.36;100.00
36630;BME280;36256;42.154;23.002;2023-12-20T04:41:05;97525.19;;;-0.22;100.00
36630;BME280;36256;42.154;23.002;2023-12-20T04:43:31;97510.16;;;-0.28;100.00
36630;BME280;36256;42.154;23.002;2023-12-20T04:45:58;97519.59;;;-0.25;100.00
36630;BME280;36256;42.154;23.002;2023-12-20T04:48:25;97520.00;;;-0.27;100.00
36630;BME280;36256;42.154;23.002;2023-12-20T04:50:52;97508.97;;;-0.27;100.00
36630;BME280;36256;42.154;23.002;2023-12-20T04:53:18;97516.13;;;-0.19;100.00
36630;BME280;36256;42.154;23.002;2023-12-20T04:55:45;97505.47;;;-0.24;100.00
36630;BME280;36256;42.154;23.002;2023-12-20T04:58:12;97510.59;;;-0.22;100.00
36630;BME280;36256;42.154;23.002;2023-12-20T05:00:38;97503.13;;;-0.22;100.00
36630;BME280;36256;42.154;23.002;2023-12-20T05:03:05;97481.38;;;-0.27;100.00
36630;BME280;36256;42.154;23.002;2023-12-20T05:05:33;97507.84;;;-0.19;100.00
36630;BME280;36256;42.154;23.002;2023-12-20T05:08:00;97505.09;;;-0.19;100.00
36630;BME280;36256;42.154;23.002;2023-12-20T05:10:26;97499.19;;;-0.21;100.00
36630;BME280;36256;42.154;23.002;2023-12-20T05:12:54;97494.88;;;-0.18;100.00
36630;BME280;36256;42.154;23.002;2023-12-20T05:15:21;97495.66;;;-0.18;100.00
36630;BME280;36256;42.154;23.002;2023-12-20T05:17:48;97503.16;;;-0.15;100.00
36630;BME280;36256;42.154;23.002;2023-12-20T05:20:15;97499.97;;;-0.20;100.00
36630;BME280;36256;42.154;23.002;2023-12-20T05:22:42;97488.50;;;-0.26;100.00
36630;BME280;36256;42.154;23.002;2023-12-20T05:25:09;97492.88;;;-0.21;100.00
36630;BME280;36256;42.154;23.002;2023-12-20T05:27:36;97494.03;;;-0.22;100.00
36630;BME280;36256;42.154;23.002;2023-12-20T05:30:02;97491.28;;;-0.22;100.00
36630;BME280;36256;42.154;23.002;2023-12-20T05:32:31;97495.19;;;-0.27;100.00
36630;BME280;36256;42.154;23.002;2023-12-20T05:34:58;97490.06;;;-0.28;100.00
36630;BME280;36256;42.154;23.002;2023-12-20T05:37:24;97483.28;;;-0.34;100.00
36630;BME280;36256;42.154;23.002;2023-12-20T05:39:51;97481.31;;;-0.34;100.00
36630;BME280;36256;42.154;23.002;2023-12-20T05:42:18;97480.94;;;-0.32;100.00
36630;BME280;36256;42.154;23.002;2023-12-20T05:44:45;97469.13;;;-0.33;100.00
36630;BME280;36256;42.154;23.002;2023-12-20T05:47:11;97475.84;;;-0.30;100.00
36630;BME280;36256;42.154;23.002;2023-12-20T05:49:38;97471.13;;;-0.30;100.00
36630;BME280;36256;42.154;23.002;2023-12-20T05:52:05;97471.84;;;-0.36;100.00
36630;BME280;36256;42.154;23.002;2023-12-20T05:54:32;97479.00;;;-0.32;100.00
36630;BME280;36256;42.154;23.002;2023-12-20T05:56:58;97475.13;;;-0.24;100.00
36630;BME280;36256;42.154;23.002;2023-12-20T05:59:25;97482.63;;;-0.21;100.00
36630;BME280;36256;42.154;23.002;2023-12-20T06:01:52;97472.84;;;-0.15;100.00
36630;BME280;36256;42.154;23.002;2023-12-20T06:04:19;97471.25;;;-0.16;100.00
36630;BME280;36256;42.154;23.002;2023-12-20T06:06:48;97472.47;;;-0.13;100.00
36630;BME280;36256;42.154;23.002;2023-12-20T06:09:15;97469.72;;;-0.13;100.00
36630;BME280;36256;42.154;23.002;2023-12-20T06:11:42;97461.38;;;-0.17;100.00
36630;BME280;36256;42.154;23.002;2023-12-20T06:14:09;97468.47;;;-0.19;100.00
36630;BME280;36256;42.154;23.002;2023-12-20T06:16:35;97453.41;;;-0.29;100.00
36630;BME280;36256;42.154;23.002;2023-12-20T06:19:02;97464.13;;;-0.20;100.00
36630;BME280;36256;42.154;23.002;2023-12-20T06:21:29;97465.31;;;-0.21;100.00
36630;BME280;36256;42.154;23.002;2023-12-20T06:23:56;97469.63;;;-0.20;100.00
36630;BME280;36256;42.154;23.002;2023-12-20T06:26:23;97473.94;;;-0.23;100.00
36630;BME280;36256;42.154;23.002;2023-12-20T06:28:49;97471.25;;;-0.19;100.00
36630;BME280;36256;42.154;23.002;2023-12-20T06:31:16;97475.97;;;-0.16;100.00
36630;BME280;36256;42.154;23.002;2023-12-20T06:33:43;97472.81;;;-0.18;100.00
36630;BME280;36256;42.154;23.002;2023-12-20T06:36:13;97469.25;;;-0.19;100.00
36630;BME280;36256;42.154;23.002;2023-12-20T06:38:40;97469.66;;;-0.17;100.00
36630;BME280;36256;42.154;23.002;2023-12-20T06:41:13;97466.53;;;-0.15;100.00
36630;BME280;36256;42.154;23.002;2023-12-20T06:43:40;97465.34;;;-0.18;100.00
36630;BME280;36256;42.154;23.002;2023-12-20T06:46:15;97450.72;;;-0.22;100.00
36630;BME280;36256;42.154;23.002;2023-12-20T06:48:44;97453.47;;;-0.22;100.00
36630;BME280;36256;42.154;23.002;2023-12-20T06:51:16;97447.59;;;-0.17;100.00
36630;BME280;36256;42.154;23.002;2023-12-20T06:53:43;97451.94;;;-0.19;100.00
36630;BME280;36256;42.154;23.002;2023-12-20T06:56:11;97449.22;;;-0.12;100.00
36630;BME280;36256;42.154;23.002;2023-12-20T06:58:44;97440.09;;;-0.20;100.00
36630;BME280;36256;42.154;23.002;2023-12-20T07:01:14;97434.19;;;-0.18;100.00
36630;BME280;36256;42.154;23.002;2023-12-20T07:03:42;97426.16;;;-0.34;100.00
36630;BME280;36256;42.154;23.002;2023-12-20T07:06:08;97445.13;;;-0.29;100.00
36630;BME280;36256;42.154;23.002;2023-12-20T07:08:36;97436.44;;;-0.31;100.00
36630;BME280;36256;42.154;23.002;2023-12-20T07:11:03;97427.34;;;-0.35;100.00
36630;BME280;36256;42.154;23.002;2023-12-20T07:13:30;97430.97;;;-0.27;100.00
36630;BME280;36256;42.154;23.002;2023-12-20T07:15:57;97430.22;;;-0.21;100.00
36630;BME280;36256;42.154;23.002;2023-12-20T07:18:23;97432.63;;;-0.19;100.00
36630;BME280;36256;42.154;23.002;2023-12-20T07:20:50;97426.31;;;-0.20;100.00
36630;BME280;36256;42.154;23.002;2023-12-20T07:23:17;97431.03;;;-0.20;100.00
36630;BME280;36256;42.154;23.002;2023-12-20T07:25:45;97423.06;;;-0.29;100.00
36630;BME280;36256;42.154;23.002;2023-12-20T07:28:12;97422.19;;;-0.40;100.00
36630;BME280;36256;42.154;23.002;2023-12-20T07:30:39;97407.22;;;-0.42;100.00
36630;BME280;36256;42.154;23.002;2023-12-20T07:33:06;97399.91;;;-0.61;100.00
36630;BME280;36256;42.154;23.002;2023-12-20T07:35:35;97415.38;;;-0.53;100.00
36630;BME280;36256;42.154;23.002;2023-12-20T07:38:02;97404.78;;;-0.47;100.00
36630;BME280;36256;42.154;23.002;2023-12-20T07:40:29;97402.44;;;-0.45;100.00
36630;BME280;36256;42.154;23.002;2023-12-20T07:42:56;97399.31;;;-0.44;100.00
36630;BME280;36256;42.154;23.002;2023-12-20T07:45:23;97403.28;;;-0.38;100.00
36630;BME280;36256;42.154;23.002;2023-12-20T07:47:49;97404.88;;;-0.37;100.00
36630;BME280;36256;42.154;23.002;2023-12-20T07:50:16;97404.88;;;-0.37;100.00
36630;BME280;36256;42.154;23.002;2023-12-20T07:52:43;97399.72;;;-0.42;100.00
36630;BME280;36256;42.154;23.002;2023-12-20T07:55:10;97396.19;;;-0.42;100.00
36630;BME280;36256;42.154;23.002;2023-12-20T07:57:36;97392.66;;;-0.39;100.00
36630;BME280;36256;42.154;23.002;2023-12-20T08:00:04;97391.94;;;-0.33;100.00
36630;BME280;36256;42.154;23.002;2023-12-20T08:02:31;97386.81;;;-0.31;100.00
36630;BME280;36256;42.154;23.002;2023-12-20T08:04:58;97396.38;;;-0.21;100.00
36630;BME280;36256;42.154;23.002;2023-12-20T08:07:25;97387.63;;;-0.30;100.00
36630;BME280;36256;42.154;23.002;2023-12-20T08:09:51;97386.13;;;-0.21;100.00
36630;BME280;36256;42.154;23.002;2023-12-20T08:12:19;97385.38;;;-0.18;100.00
36630;BME280;36256;42.154;23.002;2023-12-20T08:14:46;97371.19;;;-0.13;100.00
36630;BME280;36256;42.154;23.002;2023-12-20T08:17:12;97375.22;;;-0.03;100.00
36630;BME280;36256;42.154;23.002;2023-12-20T08:19:39;97365.41;;;-0.01;100.00
36630;BME280;36256;42.154;23.002;2023-12-20T08:22:06;97375.31;;;0.11;100.00
36630;BME280;36256;42.154;23.002;2023-12-20T08:24:33;97373.72;;;0.07;100.00
36630;BME280;36256;42.154;23.002;2023-12-20T08:27:00;97380.00;;;0.00;100.00
36630;BME280;36256;42.154;23.002;2023-12-20T08:29:26;97373.69;;;-0.01;100.00
36630;BME280;36256;42.154;23.002;2023-12-20T08:31:53;97359.09;;;0.03;100.00
36630;BME280;36256;42.154;23.002;2023-12-20T08:34:23;97362.69;;;0.07;100.00
36630;BME280;36256;42.154;23.002;2023-12-20T08:36:51;97357.69;;;0.23;100.00
36630;BME280;36256;42.154;23.002;2023-12-20T08:39:18;97360.09;;;0.38;100.00
36630;BME280;36256;42.154;23.002;2023-12-20T08:41:44;97355.03;;;0.47;100.00
36630;BME280;36256;42.154;23.002;2023-12-20T08:44:11;97341.66;;;0.53;100.00
36630;BME280;36256;42.154;23.002;2023-12-20T08:46:37;97346.41;;;0.52;100.00
36630;BME280;36256;42.154;23.002;2023-12-20T08:49:04;97343.25;;;0.54;100.00
36630;BME280;36256;42.154;23.002;2023-12-20T08:51:32;97347.94;;;0.46;100.00
36630;BME280;36256;42.154;23.002;2023-12-20T08:54:00;97336.91;;;0.50;100.00
36630;BME280;36256;42.154;23.002;2023-12-20T08:56:26;97340.09;;;0.52;100.00
36630;BME280;36256;42.154;23.002;2023-12-20T08:58:53;97325.13;;;0.56;100.00
36630;BME280;36256;42.154;23.002;2023-12-20T09:01:20;97327.09;;;0.59;100.00
36630;BME280;36256;42.154;23.002;2023-12-20T09:03:47;97319.50;;;0.35;100.00
36630;BME280;36256;42.154;23.002;2023-12-20T09:06:14;97310.44;;;0.38;100.00
36630;BME280;36256;42.154;23.002;2023-12-20T09:08:42;97316.75;;;0.39;100.00
36630;BME280;36256;42.154;23.002;2023-12-20T09:11:08;97304.50;;;0.33;100.00
36630;BME280;36256;42.154;23.002;2023-12-20T09:13:35;97284.03;;;0.34;100.00
36630;BME280;36256;42.154;23.002;2023-12-20T09:16:03;97291.16;;;0.45;100.00
36630;BME280;36256;42.154;23.002;2023-12-20T09:18:30;97294.31;;;0.51;100.00
36630;BME280;36256;42.154;23.002;2023-12-20T09:20:56;97288.03;;;0.50;100.00
36630;BME280;36256;42.154;23.002;2023-12-20T09:23:23;97278.59;;;0.62;100.00
36630;BME280;36256;42.154;23.002;2023-12-20T09:25:50;97269.94;;;0.67;100.00
36630;BME280;36256;42.154;23.002;2023-12-20T09:28:20;97266.84;;;0.86;100.00
36630;BME280;36256;42.154;23.002;2023-12-20T09:30:47;97251.47;;;0.89;100.00
36630;BME280;36256;42.154;23.002;2023-12-20T09:33:14;97257.31;;;0.73;100.00
36630;BME280;36256;42.154;23.002;2023-12-20T09:35:42;97260.06;;;0.62;100.00
36630;BME280;36256;42.154;23.002;2023-12-20T09:38:10;97243.06;;;0.50;100.00
36630;BME280;36256;42.154;23.002;2023-12-20T09:40:41;97247.81;;;0.60;100.00
36630;BME280;36256;42.154;23.002;2023-12-20T09:43:14;97235.16;;;0.41;100.00
36630;BME280;36256;42.154;23.002;2023-12-20T09:45:46;97235.56;;;0.57;100.00
36630;BME280;36256;42.154;23.002;2023-12-20T09:48:18;97239.97;;;0.69;100.00
36630;BME280;36256;42.154;23.002;2023-12-20T09:50:45;97230.53;;;0.91;100.00
36630;BME280;36256;42.154;23.002;2023-12-20T09:53:19;97228.97;;;0.97;100.00
36630;BME280;36256;42.154;23.002;2023-12-20T09:55:46;97205.28;;;0.93;100.00
36630;BME280;36256;42.154;23.002;2023-12-20T09:58:13;97206.47;;;1.09;100.00
36630;BME280;36256;42.154;23.002;2023-12-20T10:00:40;97202.13;;;1.22;100.00
36630;BME280;36256;42.154;23.002;2023-12-20T10:03:08;97182.38;;;1.27;100.00
36630;BME280;36256;42.154;23.002;2023-12-20T10:05:36;97185.53;;;1.29;100.00
36630;BME280;36256;42.154;23.002;2023-12-20T10:08:03;97183.97;;;1.07;100.00
36630;BME280;36256;42.154;23.002;2023-12-20T10:10:30;97173.69;;;0.79;100.00
36630;BME280;36256;42.154;23.002;2023-12-20T10:13:11;97154.34;;;0.83;100.00
36630;BME280;36256;42.154;23.002;2023-12-20T10:15:39;97146.47;;;1.06;100.00
36630;BME280;36256;42.154;23.002;2023-12-20T10:18:08;97146.88;;;1.15;100.00
36630;BME280;36256;42.154;23.002;2023-12-20T10:20:35;97138.56;;;1.15;100.00
36630;BME280;36256;42.154;23.002;2023-12-20T10:23:03;97137.38;;;1.16;100.00
36630;BME280;36256;42.154;23.002;2023-12-20T10:25:30;97136.59;;;1.16;100.00
36630;BME280;36256;42.154;23.002;2023-12-20T10:28:11;97122.78;;;1.12;100.00
36630;BME280;36256;42.154;23.002;2023-12-20T10:30:40;97121.97;;;1.19;100.00
36630;BME280;36256;42.154;23.002;2023-12-20T10:33:07;97113.28;;;1.27;100.00
36630;BME280;36256;42.154;23.002;2023-12-20T10:35:34;97104.22;;;1.23;100.00
36630;BME280;36256;42.154;23.002;2023-12-20T10:38:05;97099.84;;;1.36;100.00
36630;BME280;36256;42.154;23.002;2023-12-20T10:40:36;97101.00;;;1.42;100.00
36630;BME280;36256;42.154;23.002;2023-12-20T10:43:04;97086.00;;;1.43;100.00
36630;BME280;36256;42.154;23.002;2023-12-20T10:45:32;97086.72;;;1.69;100.00
36630;BME280;36256;42.154;23.002;2023-12-20T10:48:01;97063.03;;;1.64;100.00
36630;BME280;36256;42.154;23.002;2023-12-20T10:50:29;97060.31;;;1.53;100.00
36630;BME280;36256;42.154;23.002;2023-12-20T10:52:58;97050.44;;;1.49;100.00
36630;BME280;36256;42.154;23.002;2023-12-20T10:55:25;97068.56;;;1.64;100.00
36630;BME280;36256;42.154;23.002;2023-12-20T10:58:00;97055.47;;;1.75;100.00
36630;BME280;36256;42.154;23.002;2023-12-20T11:00:29;97055.41;;;1.82;100.00
36630;BME280;36256;42.154;23.002;2023-12-20T11:03:00;97040.84;;;1.75;100.00
36630;BME280;36256;42.154;23.002;2023-12-20T11:05:38;97045.88;;;1.94;100.00
36630;BME280;36256;42.154;23.002;2023-12-20T11:08:21;97035.25;;;1.82;100.00
36630;BME280;36256;42.154;23.002;2023-12-20T11:10:57;97037.69;;;1.69;100.00
36630;BME280;36256;42.154;23.002;2023-12-20T11:13:31;97025.81;;;1.76;100.00
36630;BME280;36256;42.154;23.002;2023-12-20T11:15:59;97015.97;;;1.68;100.00
36630;BME280;36256;42.154;23.002;2023-12-20T11:18:30;97030.56;;;1.79;100.00
36630;BME280;36256;42.154;23.002;2023-12-20T11:21:02;97012.38;;;1.78;100.00
36630;BME280;36256;42.154;23.002;2023-12-20T11:23:30;97015.13;;;1.78;100.00
36630;BME280;36256;42.154;23.002;2023-12-20T11:25:57;97015.16;;;1.74;100.00
36630;BME280;36256;42.154;23.002;2023-12-20T11:28:27;97014.00;;;1.75;100.00
36630;BME280;36256;42.154;23.002;2023-12-20T11:30:58;97007.94;;;1.91;100.00
36630;BME280;36256;42.154;23.002;2023-12-20T11:33:30;97000.47;;;1.88;100.00
36630;BME280;36256;42.154;23.002;2023-12-20T11:35:59;96964.19;;;1.72;100.00
36630;BME280;36256;42.154;23.002;2023-12-20T11:38:26;96973.63;;;1.81;100.00
36630;BME280;36256;42.154;23.002;2023-12-20T11:40:56;96978.28;;;1.98;100.00
36630;BME280;36256;42.154;23.002;2023-12-20T11:43:35;96966.38;;;2.05;100.00
36630;BME280;36256;42.154;23.002;2023-12-20T11:46:06;96969.50;;;2.10;100.00
36630;BME280;36256;42.154;23.002;2023-12-20T11:48:36;96959.25;;;2.04;100.00
36630;BME280;36256;42.154;23.002;2023-12-20T11:51:09;96954.22;;;1.92;100.00
36630;BME280;36256;42.154;23.002;2023-12-20T11:53:37;96949.44;;;1.96;100.00
36630;BME280;36256;42.154;23.002;2023-12-20T11:56:06;96960.72;;;2.19;100.00
36630;BME280;36256;42.154;23.002;2023-12-20T11:58:33;96958.38;;;2.14;100.00
36630;BME280;36256;42.154;23.002;2023-12-20T12:01:01;96950.16;;;2.07;100.00
36630;BME280;36256;42.154;23.002;2023-12-20T12:03:31;96938.28;;;2.03;100.00
36630;BME280;36256;42.154;23.002;2023-12-20T12:05:58;96937.16;;;1.97;100.00
36630;BME280;36256;42.154;23.002;2023-12-20T12:08:25;96934.78;;;1.99;100.00
36630;BME280;36256;42.154;23.002;2023-12-20T12:10:51;96915.41;;;1.99;100.00
36630;BME280;36256;42.154;23.002;2023-12-20T12:13:18;96922.63;;;1.86;100.00
36630;BME280;36256;42.154;23.002;2023-12-20T12:15:45;96908.09;;;1.75;100.00
36630;BME280;36256;42.154;23.002;2023-12-20T12:18:17;96917.03;;;1.93;100.00
36630;BME280;36256;42.154;23.002;2023-12-20T12:20:43;96912.91;;;1.64;100.00
36630;BME280;36256;42.154;23.002;2023-12-20T12:23:10;96906.53;;;1.70;100.00
36630;BME280;36256;42.154;23.002;2023-12-20T12:25:37;96904.50;;;1.78;100.00
36630;BME280;36256;42.154;23.002;2023-12-20T12:28:08;96903.31;;;1.79;100.00
36630;BME280;36256;42.154;23.002;2023-12-20T12:30:38;96901.66;;;1.88;100.00
36630;BME280;36256;42.154;23.002;2023-12-20T12:33:18;96903.19;;;1.96;100.00
36630;BME280;36256;42.154;23.002;2023-12-20T12:35:45;96892.09;;;2.00;100.00
36630;BME280;36256;42.154;23.002;2023-12-20T12:38:14;96903.88;;;2.11;100.00
36630;BME280;36256;42.154;23.002;2023-12-20T12:40:43;96905.41;;;2.12;100.00
36630;BME280;36256;42.154;23.002;2023-12-20T12:43:10;96881.78;;;2.04;100.00
36630;BME280;36256;42.154;23.002;2023-12-20T12:45:37;96891.59;;;2.12;100.00
36630;BME280;36256;42.154;23.002;2023-12-20T12:48:04;96899.38;;;2.24;100.00